CheckWX is a tool to help pilots better visualize weather data.  It is not intended as a substitute for an official pre-flight weather briefing.

18:30:48 UTC

LYPG TAF
Podgorica Airport
Podgorica, Montenegro
TAF LYPG 221700Z 2218/2318 36007KT 9999 FEW040 SCT080 TX05/2313Z TNM01/2305Z TEMPO 2219/2222 01015G25KT BECMG 2222/2224 01020G30KT BECMG 2301/2303 02030G45KT TEMPO 2303/2318 02040G60KT

Feb-22@
18:00 UTC

Feb-22 @ 18:00 UTC

Feb-22@
22:00 UTC

Feb-22 @ 22:00 UTC

TAF LYPG 221700Z 2218/2318 36007KT 9999 FEW040 SCT080 TX05/2313Z TNM01/2305Z
Wind
  • 360° at 7 KTS
Cloud Levels
  • Few at 4,000' AGL
  • Scattered at 8,000' AGL

Feb-22@
19:00 UTC

Feb-22 @ 19:00 UTC

Feb-22@
22:00 UTC

Feb-22 @ 22:00 UTC

TEMPO 2219/2222 01015G25KT

Temporary

TemporaryChanges expected for less than half the time period

Wind
  • 010° at 15 KTS
  • {Gusting to 25 KTS

Feb-22@
22:00 UTC

Feb-22 @ 22:00 UTC

Feb-23@
01:00 UTC

Feb-23 @ 01:00 UTC

BECMG 2222/2224 01020G30KT

Becoming

BecomingConditions expected by Sat, Feb 23, 2019 @ 00:00 UTC

Wind
  • 010° at 20 KTS
  • {Gusting to 30 KTS
Cloud Levels
  • Few at 4,000' AGL
  • Scattered at 8,000' AGL

Feb-23@
01:00 UTC

Feb-23 @ 01:00 UTC

Feb-23@
18:00 UTC

Feb-23 @ 18:00 UTC

BECMG 2301/2303 02030G45KT

Becoming

BecomingConditions expected by Sat, Feb 23, 2019 @ 03:00 UTC

Wind
  • 020° at 30 KTS
  • {Gusting to 45 KTS
Cloud Levels
  • Few at 4,000' AGL
  • Scattered at 8,000' AGL

Feb-23@
03:00 UTC

Feb-23 @ 03:00 UTC

Feb-23@
18:00 UTC

Feb-23 @ 18:00 UTC

TEMPO 2303/2318 02040G60KT

Temporary

TemporaryChanges expected for less than half the time period

Wind
  • 020° at 40 KTS
  • {Gusting to 60 KTS